Terminal Aerodrome Forecast
Issued by NWS

Home | Current Version | Previous Version | Text Only | Print | Product List | Glossary On
Versions: 1 2 3 4 5 6 7 8 9 10 11 12 13 14 15 16 17 18 19 20 21 22 23 24 25 26 27 28 29 30 31 32 33
000
FTUS44 KHGX 252340
TAFSGR
TAF
KSGR 252340Z 2600/2624 17015KT P6SM FEW025 OVC045
     FM260200 17013G23KT P6SM SCT015 BKN025
     FM260600 17014KT P6SM BKN015
     FM260900 17015G21KT P6SM OVC009
     FM261500 19015G22KT P6SM OVC015
     FM261800 22018G24KT P6SM BKN030
     FM262300 31014KT P6SM FEW080 SCT250=

USA.gov is the U.S. government's official web portal to all federal, state and local government web resources and services.